aviador You're here:

LFMH Decoded Metar

ST.-ETIENNE in FRANCE
Report Time2017-11-22 21:30:00
UTC Time2017-11-22 21:53:46
Flight Rules vfr VFR
Wind150° at 11 kt
W.Decomp.*RWY 18: 9.5 kt HW 5.5 kt LCW
W.Rank150° ranks 4
Current wind is above 150° avg. (5.6)
Visibility9999 m
Phenomena:N/A
Clouds:N/A
Expected CloudBase > 2,400 ft AGL from Temp-Dew spread
CeilingNone
Temp12°C (ISA -0)
Dew Point06°C (67% RH)
AAT7.1°C
QNH1012 hPa
Density Alt1,440 ft
Elevation1,319 ft
Report Wrong Elevation
Raw Report
LFMH 222130Z AUTO 15011KT 130V190 CAVOK 12/06 Q1012=

Extra information for LFMH:More info

Metar Taf Metar & Taf Last 4 Metars F.Rules Stats Wind Profile Meteogram Temp Stats Airport Information Weather charts Add Link Nearby VenuesMetar ALERT Operation Metar Decoded Social comments